Time;durP1;ratioP1;P1;durP2;ratioP2;P2;SDS_P1;SDS_P2;PMS_P1;PMS_P2;Temp;Humidity;BMP_temperature;BMP_pressure;BME280_temperature;BME280_humidity;BME280_pressure;Samples;Min_cycle;Max_cycle;Signal;HPM_P1;HPM_P2
2023/01/01 00:00:32;;;;;;;168.23;109.50;;;;;;;;;;6276114;28;20094;-76
2023/01/01 00:03:35;;;;;;;214.23;139.52;;;;;;;;;;6275040;28;20057;-76
2023/01/01 00:06:37;;;;;;;212.18;136.88;;;;;;;;;;6273780;28;20110;-77
2023/01/01 00:12:57;;;;;;;267.40;168.15;;;;;;;;;;6243406;28;20100;-76
2023/01/01 00:16:04;;;;;;;256.08;162.75;;;;;;;;;;6277218;28;20091;-75
2023/01/01 00:19:07;;;;;;;279.10;178.38;;;;;;;;;;6278105;28;20053;-76
2023/01/01 00:22:09;;;;;;;273.25;174.00;;;;;;;;;;6276514;28;20052;-75
2023/01/01 00:25:12;;;;;;;277.90;174.80;;;;;;;;;;6276034;28;20051;-76
2023/01/01 00:28:14;;;;;;;274.33;170.15;;;;;;;;;;6275398;28;20056;-76
2023/01/01 00:31:18;;;;;;;255.10;161.23;;;;;;;;;;6275029;28;20321;-76
2023/01/01 00:34:21;;;;;;;284.98;178.85;;;;;;;;;;6274871;28;20120;-74
2023/01/01 00:37:22;;;;;;;289.40;180.52;;;;;;;;;;6275700;28;20343;-76
2023/01/01 00:40:24;;;;;;;272.80;174.65;;;;;;;;;;6275666;28;20095;-72
2023/01/01 00:43:26;;;;;;;260.50;165.20;;;;;;;;;;6274042;28;20245;-76
2023/01/01 00:46:27;;;;;;;262.35;161.45;;;;;;;;;;6276894;28;20222;-76
2023/01/01 00:49:30;;;;;;;249.95;155.70;;;;;;;;;;6276299;28;20604;-76
2023/01/01 00:52:32;;;;;;;238.52;148.60;;;;;;;;;;6280470;28;20371;-76
2023/01/01 00:55:34;;;;;;;246.65;149.93;;;;;;;;;;6279961;28;20401;-74
2023/01/01 00:58:35;;;;;;;225.93;142.32;;;;;;;;;;6283047;28;20053;-77
2023/01/01 01:01:39;;;;;;;234.55;149.20;;;;;;;;;;6280448;28;20041;-76
2023/01/01 01:04:42;;;;;;;242.88;156.25;;;;;;;;;;6280405;28;20049;-77
2023/01/01 01:07:44;;;;;;;247.05;155.27;;;;;;;;;;6279944;28;20045;-76
2023/01/01 01:10:45;;;;;;;237.52;151.50;;;;;;;;;;6278163;28;20056;-76
2023/01/01 01:13:48;;;;;;;225.57;145.63;;;;;;;;;;6278879;28;20049;-76
2023/01/01 01:16:50;;;;;;;251.20;157.98;;;;;;;;;;6280366;28;20086;-72
2023/01/01 01:19:53;;;;;;;248.35;154.48;;;;;;;;;;6282451;28;20067;-77
2023/01/01 01:22:55;;;;;;;252.15;158.85;;;;;;;;;;6281975;28;20048;-74
2023/01/01 01:26:06;;;;;;;242.07;148.32;;;;;;;;;;6278709;28;20248;-71
2023/01/01 01:29:08;;;;;;;248.02;155.27;;;;;;;;;;6280887;28;20057;-76
2023/01/01 01:32:10;;;;;;;234.52;149.75;;;;;;;;;;6279824;28;20231;-75
2023/01/01 01:35:13;;;;;;;237.25;149.75;;;;;;;;;;6279791;28;20059;-72
2023/01/01 01:38:15;;;;;;;238.30;151.90;;;;;;;;;;6279791;28;20090;-76
2023/01/01 01:41:19;;;;;;;237.00;147.13;;;;;;;;;;6277932;28;20087;-76
2023/01/01 01:44:59;;;;;;;228.17;142.20;;;;;;;;;;6277905;28;20347;-76
2023/01/01 01:48:01;;;;;;;224.85;142.30;;;;;;;;;;6274691;28;20041;-76
2023/01/01 01:51:05;;;;;;;224.95;143.40;;;;;;;;;;6278153;28;20047;-77
2023/01/01 01:54:11;;;;;;;221.65;140.25;;;;;;;;;;6281956;28;20045;-76
2023/01/01 01:57:13;;;;;;;238.45;151.95;;;;;;;;;;6282752;28;20056;-77
2023/01/01 02:00:15;;;;;;;235.20;150.40;;;;;;;;;;6277901;28;20362;-76
2023/01/01 02:03:19;;;;;;;245.82;156.07;;;;;;;;;;6278805;28;20053;-76
2023/01/01 02:06:22;;;;;;;251.38;162.32;;;;;;;;;;6278172;28;20146;-76
2023/01/01 02:09:23;;;;;;;276.40;167.35;;;;;;;;;;6279514;28;20287;-77
2023/01/01 02:12:26;;;;;;;288.52;179.00;;;;;;;;;;6276257;28;20041;-76
2023/01/01 02:15:30;;;;;;;297.67;191.50;;;;;;;;;;6279994;28;20036;-76
2023/01/01 02:18:38;;;;;;;291.40;191.05;;;;;;;;;;6279007;28;20233;-76
2023/01/01 02:21:54;;;;;;;295.80;185.65;;;;;;;;;;6278772;28;20045;-76
2023/01/01 02:25:08;;;;;;;306.15;192.95;;;;;;;;;;6278531;28;20114;-76
2023/01/01 02:28:16;;;;;;;302.77;193.50;;;;;;;;;;6279191;28;20045;-76
2023/01/01 02:31:22;;;;;;;306.30;197.43;;;;;;;;;;6276741;28;20467;-77
2023/01/01 02:34:27;;;;;;;288.08;187.60;;;;;;;;;;6276727;28;20053;-76
2023/01/01 02:37:29;;;;;;;310.10;200.80;;;;;;;;;;6276285;28;20056;-76
2023/01/01 02:40:31;;;;;;;302.80;195.82;;;;;;;;;;6278761;28;20111;-75
2023/01/01 02:43:33;;;;;;;308.92;202.15;;;;;;;;;;6279455;28;20049;-76
2023/01/01 02:46:36;;;;;;;320.42;201.32;;;;;;;;;;6278407;28;20052;-76
2023/01/01 02:49:44;;;;;;;325.90;206.10;;;;;;;;;;6277034;28;20049;-74
2023/01/01 02:52:53;;;;;;;320.38;198.52;;;;;;;;;;6277321;28;20186;-76
2023/01/01 02:56:00;;;;;;;303.60;192.40;;;;;;;;;;6278259;28;20040;-76
2023/01/01 03:02:40;;;;;;;269.25;170.40;;;;;;;;;;6278142;28;20049;-76
2023/01/01 03:09:20;;;;;;;259.02;161.57;;;;;;;;;;6265213;28;20114;-76
2023/01/01 03:12:38;;;;;;;258.40;158.50;;;;;;;;;;6276816;28;20048;-76
2023/01/01 03:15:43;;;;;;;248.00;153.70;;;;;;;;;;6278648;28;20237;-76
2023/01/01 03:19:09;;;;;;;260.48;160.52;;;;;;;;;;6274854;28;20087;-76
2023/01/01 03:22:13;;;;;;;251.40;156.98;;;;;;;;;;6277098;28;20348;-76
2023/01/01 03:25:17;;;;;;;251.07;151.88;;;;;;;;;;6273738;28;20057;-76
2023/01/01 03:28:18;;;;;;;;;;;;;;;;;;6274680;28;20045;-76
2023/01/01 03:31:23;;;;;;;233.23;144.38;;;;;;;;;;6277826;28;19929;-76
2023/01/01 03:34:30;;;;;;;243.85;147.82;;;;;;;;;;6276216;28;20110;-76
2023/01/01 03:37:31;;;;;;;221.65;137.68;;;;;;;;;;6280907;28;20086;-79
2023/01/01 03:40:35;;;;;;;219.38;131.50;;;;;;;;;;6274559;28;20053;-76
2023/01/01 03:43:42;;;;;;;205.63;128.20;;;;;;;;;;6275997;28;20041;-76
2023/01/01 03:46:43;;;;;;;194.85;121.93;;;;;;;;;;6275915;28;20386;-74
2023/01/01 03:49:47;;;;;;;173.55;112.38;;;;;;;;;;6275687;28;20057;-76
2023/01/01 03:52:54;;;;;;;169.73;111.25;;;;;;;;;;6275646;28;20061;-76
2023/01/01 03:56:04;;;;;;;166.07;109.18;;;;;;;;;;6274394;28;20041;-76
2023/01/01 03:59:11;;;;;;;158.98;106.78;;;;;;;;;;6279738;28;20098;-76
2023/01/01 04:02:17;;;;;;;151.43;100.88;;;;;;;;;;6277913;28;20264;-79
2023/01/01 04:05:20;;;;;;;147.65;96.03;;;;;;;;;;6273918;28;20049;-76
2023/01/01 04:08:22;;;;;;;154.93;103.18;;;;;;;;;;6277118;28;20048;-76
2023/01/01 04:14:47;;;;;;;141.07;93.50;;;;;;;;;;6277467;28;20052;-75
2023/01/01 04:17:49;;;;;;;137.02;92.30;;;;;;;;;;6277034;28;20054;-71
2023/01/01 04:20:52;;;;;;;130.75;88.93;;;;;;;;;;6276165;28;20052;-75
2023/01/01 04:23:54;;;;;;;127.50;85.47;;;;;;;;;;6275361;28;20383;-75
2023/01/01 04:26:56;;;;;;;123.20;82.38;;;;;;;;;;6276210;28;20068;-76
2023/01/01 04:29:58;;;;;;;116.70;78.25;;;;;;;;;;6282935;28;20091;-76
2023/01/01 04:32:59;;;;;;;111.45;74.63;;;;;;;;;;6278101;28;20321;-76
2023/01/01 04:36:05;;;;;;;111.10;74.07;;;;;;;;;;6282895;28;20056;-77
2023/01/01 04:39:07;;;;;;;93.45;64.28;;;;;;;;;;6281348;28;20056;-76
2023/01/01 04:42:09;;;;;;;95.18;62.47;;;;;;;;;;6281880;28;20059;-78
2023/01/01 04:45:13;;;;;;;93.45;62.88;;;;;;;;;;6280844;28;20048;-76
2023/01/01 04:48:15;;;;;;;77.05;54.35;;;;;;;;;;6280831;28;20825;-76
2023/01/01 04:51:20;;;;;;;86.95;57.60;;;;;;;;;;6279943;28;20287;-75
2023/01/01 04:54:21;;;;;;;80.57;54.67;;;;;;;;;;6281098;28;20060;-76
2023/01/01 04:57:23;;;;;;;80.95;54.00;;;;;;;;;;6280074;28;20041;-76
2023/01/01 05:00:25;;;;;;;76.88;52.97;;;;;;;;;;6278087;28;20045;-76
2023/01/01 05:03:26;;;;;;;76.07;51.38;;;;;;;;;;6279257;28;20244;-76
2023/01/01 05:06:29;;;;;;;75.82;51.60;;;;;;;;;;6281230;28;20051;-74
2023/01/01 05:09:31;;;;;;;75.03;52.20;;;;;;;;;;6280336;28;20045;-76
2023/01/01 05:12:33;;;;;;;70.50;47.45;;;;;;;;;;6279061;28;20390;-76
2023/01/01 05:15:36;;;;;;;64.57;43.47;;;;;;;;;;6279152;28;20354;-76
2023/01/01 05:18:38;;;;;;;66.65;45.15;;;;;;;;;;6278495;28;20045;-76
2023/01/01 05:21:41;;;;;;;66.55;44.40;;;;;;;;;;6279419;28;20114;-77
2023/01/01 05:24:43;;;;;;;98.43;59.03;;;;;;;;;;6278343;28;20371;-73
2023/01/01 05:27:44;;;;;;;88.40;54.97;;;;;;;;;;6279502;28;20056;-77
2023/01/01 05:30:46;;;;;;;86.07;55.17;;;;;;;;;;6278500;28;20053;-77
2023/01/01 05:33:48;;;;;;;73.97;48.58;;;;;;;;;;6279400;28;20064;-76
2023/01/01 05:36:51;;;;;;;76.00;48.78;;;;;;;;;;6277531;28;20048;-76
2023/01/01 05:39:53;;;;;;;71.80;47.15;;;;;;;;;;6280398;28;20275;-77
2023/01/01 05:42:55;;;;;;;67.18;43.33;;;;;;;;;;6279133;28;20048;-77
2023/01/01 05:46:01;;;;;;;66.07;42.92;;;;;;;;;;6280399;28;20052;-76
2023/01/01 05:49:02;;;;;;;64.53;42.72;;;;;;;;;;6277900;28;20041;-76
2023/01/01 05:52:05;;;;;;;61.70;41.38;;;;;;;;;;6281009;28;20056;-77
2023/01/01 05:55:08;;;;;;;60.95;40.75;;;;;;;;;;6278027;28;20329;-77
2023/01/01 05:58:09;;;;;;;59.95;40.53;;;;;;;;;;6278074;28;20214;-77
2023/01/01 06:01:13;;;;;;;61.30;39.60;;;;;;;;;;6279101;28;20044;-77
2023/01/01 06:04:14;;;;;;;62.27;39.83;;;;;;;;;;6279033;28;20057;-77
2023/01/01 06:07:17;;;;;;;62.60;39.47;;;;;;;;;;6278804;28;20512;-75
2023/01/01 06:10:19;;;;;;;59.90;39.05;;;;;;;;;;6278958;28;20049;-77
2023/01/01 06:13:21;;;;;;;63.08;40.53;;;;;;;;;;6277233;28;20379;-77
2023/01/01 06:16:23;;;;;;;62.15;37.05;;;;;;;;;;6277244;28;20049;-76
2023/01/01 06:19:25;;;;;;;57.58;37.65;;;;;;;;;;6279303;28;20263;-72
2023/01/01 06:22:28;;;;;;;60.58;37.92;;;;;;;;;;6277323;28;20329;-78
2023/01/01 06:25:29;;;;;;;60.60;38.40;;;;;;;;;;6276851;28;20053;-75
2023/01/01 06:28:31;;;;;;;62.92;39.40;;;;;;;;;;6277745;28;20060;-77
2023/01/01 06:31:33;;;;;;;56.88;36.45;;;;;;;;;;6279262;28;20224;-78
2023/01/01 06:34:34;;;;;;;59.75;37.30;;;;;;;;;;6280743;28;20590;-77
2023/01/01 06:37:37;;;;;;;58.35;36.70;;;;;;;;;;6280893;28;20091;-77
2023/01/01 06:40:39;;;;;;;63.20;38.08;;;;;;;;;;6282132;28;20095;-77
2023/01/01 06:43:41;;;;;;;59.95;36.42;;;;;;;;;;6283649;28;20094;-77
2023/01/01 06:46:43;;;;;;;59.22;35.50;;;;;;;;;;6282080;28;20051;-77
2023/01/01 06:49:44;;;;;;;56.13;35.35;;;;;;;;;;6283564;28;20041;-77
2023/01/01 06:52:48;;;;;;;57.35;35.17;;;;;;;;;;6281224;28;20065;-77
2023/01/01 06:55:49;;;;;;;58.53;35.78;;;;;;;;;;6282024;28;20112;-77
2023/01/01 06:58:51;;;;;;;53.28;34.00;;;;;;;;;;6281330;28;20052;-77
2023/01/01 07:01:53;;;;;;;52.53;32.40;;;;;;;;;;6283286;28;20061;-77
2023/01/01 07:04:55;;;;;;;54.65;33.70;;;;;;;;;;6280087;28;20048;-76
2023/01/01 07:07:58;;;;;;;48.78;30.52;;;;;;;;;;6283395;28;20102;-76
2023/01/01 07:10:59;;;;;;;51.28;31.25;;;;;;;;;;6277865;28;20053;-76
2023/01/01 07:14:01;;;;;;;54.53;31.63;;;;;;;;;;6276418;28;20126;-77
2023/01/01 07:17:03;;;;;;;49.45;31.88;;;;;;;;;;6275846;28;20102;-77
2023/01/01 07:20:05;;;;;;;49.55;29.60;;;;;;;;;;6275973;28;20193;-77
2023/01/01 07:23:08;;;;;;;45.78;28.77;;;;;;;;;;6275256;28;20048;-77
2023/01/01 07:26:10;;;;;;;48.22;30.33;;;;;;;;;;6274516;28;20347;-77
2023/01/01 07:29:12;;;;;;;46.83;30.17;;;;;;;;;;6276560;28;20237;-75
2023/01/01 07:32:14;;;;;;;46.70;30.20;;;;;;;;;;6276589;28;20264;-74
2023/01/01 07:35:16;;;;;;;47.67;29.38;;;;;;;;;;6276327;28;20336;-76
2023/01/01 07:38:19;;;;;;;46.15;29.20;;;;;;;;;;6277402;28;20045;-77
2023/01/01 07:41:21;;;;;;;47.13;29.33;;;;;;;;;;6272195;28;20320;-77
2023/01/01 07:44:22;;;;;;;46.40;29.52;;;;;;;;;;6277441;28;20052;-76
2023/01/01 07:47:25;;;;;;;50.85;30.92;;;;;;;;;;6277284;28;20048;-74
2023/01/01 07:50:29;;;;;;;46.40;29.27;;;;;;;;;;6277586;28;20110;-76
2023/01/01 07:53:32;;;;;;;44.78;28.17;;;;;;;;;;6275511;28;20121;-76
2023/01/01 07:56:34;;;;;;;45.08;29.58;;;;;;;;;;6276464;28;20059;-76
2023/01/01 07:59:36;;;;;;;47.65;30.23;;;;;;;;;;6276437;28;20217;-77
2023/01/01 08:02:37;;;;;;;48.28;30.27;;;;;;;;;;6276832;28;20114;-77
2023/01/01 08:05:39;;;;;;;47.83;30.38;;;;;;;;;;6277259;28;20050;-76
2023/01/01 08:08:42;;;;;;;46.55;31.00;;;;;;;;;;6274128;28;20053;-77
2023/01/01 08:11:44;;;;;;;50.63;32.30;;;;;;;;;;6276357;28;20045;-77
2023/01/01 08:14:46;;;;;;;49.35;32.92;;;;;;;;;;6275264;28;20064;-77
2023/01/01 08:17:48;;;;;;;51.83;34.17;;;;;;;;;;6276668;28;20125;-77
2023/01/01 08:20:50;;;;;;;57.33;35.72;;;;;;;;;;6276159;28;20045;-77
2023/01/01 08:23:53;;;;;;;52.75;34.65;;;;;;;;;;6276977;28;20041;-73
2023/01/01 08:26:54;;;;;;;52.72;34.10;;;;;;;;;;6275593;28;20103;-74
2023/01/01 08:29:56;;;;;;;55.13;35.17;;;;;;;;;;6274561;28;20095;-77
2023/01/01 08:32:57;;;;;;;53.55;35.25;;;;;;;;;;6278255;28;20103;-76
2023/01/01 08:35:59;;;;;;;49.03;33.15;;;;;;;;;;6273323;28;20378;-77
2023/01/01 08:39:03;;;;;;;51.30;33.40;;;;;;;;;;6276241;28;21212;-77
2023/01/01 08:42:04;;;;;;;51.72;32.33;;;;;;;;;;6278818;28;20045;-74
2023/01/01 08:45:07;;;;;;;51.30;33.22;;;;;;;;;;6274573;28;20090;-77
2023/01/01 08:48:09;;;;;;;52.20;34.05;;;;;;;;;;6274974;28;20049;-76
2023/01/01 08:51:11;;;;;;;52.67;33.03;;;;;;;;;;6274447;28;20136;-77
2023/01/01 08:54:14;;;;;;;51.65;32.70;;;;;;;;;;6275599;28;20111;-77
2023/01/01 08:57:15;;;;;;;53.85;33.67;;;;;;;;;;6274814;28;20101;-75
2023/01/01 09:00:17;;;;;;;53.05;32.97;;;;;;;;;;6274213;28;20339;-77
2023/01/01 09:03:19;;;;;;;58.40;35.35;;;;;;;;;;6272861;28;20237;-77
2023/01/01 09:06:21;;;;;;;50.95;33.53;;;;;;;;;;6273956;28;20053;-75
2023/01/01 09:09:24;;;;;;;52.80;34.38;;;;;;;;;;6275435;28;20064;-77
2023/01/01 09:12:26;;;;;;;53.53;33.67;;;;;;;;;;6279732;28;20102;-76
2023/01/01 09:15:28;;;;;;;52.30;32.78;;;;;;;;;;6278600;28;20265;-77
2023/01/01 09:18:29;;;;;;;54.63;34.45;;;;;;;;;;6277107;28;20055;-77
2023/01/01 09:21:31;;;;;;;51.38;33.08;;;;;;;;;;6280296;28;20098;-76
2023/01/01 09:24:34;;;;;;;51.35;33.53;;;;;;;;;;6278919;28;20057;-77
2023/01/01 09:27:35;;;;;;;51.45;34.15;;;;;;;;;;6280185;28;20126;-77
2023/01/01 09:30:37;;;;;;;54.13;34.83;;;;;;;;;;6278625;28;20044;-76
2023/01/01 09:33:39;;;;;;;52.15;33.22;;;;;;;;;;6281359;28;20058;-77
2023/01/01 09:36:41;;;;;;;57.65;36.05;;;;;;;;;;6281702;28;20112;-75
2023/01/01 09:39:44;;;;;;;54.00;35.53;;;;;;;;;;6281140;28;20052;-77
2023/01/01 09:42:49;;;;;;;54.97;35.85;;;;;;;;;;6278422;28;20049;-77
2023/01/01 09:45:55;;;;;;;60.13;38.03;;;;;;;;;;6278252;28;20083;-77
2023/01/01 09:49:00;;;;;;;58.67;38.28;;;;;;;;;;6277497;28;20051;-77
2023/01/01 09:52:04;;;;;;;58.10;37.53;;;;;;;;;;6278194;28;20206;-77
2023/01/01 09:55:13;;;;;;;56.83;38.00;;;;;;;;;;6278415;28;20049;-77
2023/01/01 09:58:15;;;;;;;59.67;37.95;;;;;;;;;;6278492;28;20087;-77
2023/01/01 10:01:24;;;;;;;62.08;39.08;;;;;;;;;;6278583;28;20164;-77
2023/01/01 10:04:41;;;;;;;59.95;39.00;;;;;;;;;;6279002;28;20272;-76
2023/01/01 10:07:47;;;;;;;60.38;39.65;;;;;;;;;;6276126;28;20095;-76
2023/01/01 10:10:55;;;;;;;59.28;38.58;;;;;;;;;;6276769;28;20052;-77
2023/01/01 10:13:59;;;;;;;60.03;38.92;;;;;;;;;;6277613;28;20225;-73
2023/01/01 10:17:02;;;;;;;58.60;39.42;;;;;;;;;;6278640;28;20360;-77
2023/01/01 10:20:10;;;;;;;58.33;36.72;;;;;;;;;;6276203;28;20232;-77
2023/01/01 10:23:16;;;;;;;57.88;36.58;;;;;;;;;;6276829;28;20048;-76
2023/01/01 10:26:21;;;;;;;58.67;36.88;;;;;;;;;;6276684;28;20048;-77
2023/01/01 10:29:28;;;;;;;54.25;35.78;;;;;;;;;;6275457;28;20049;-77
2023/01/01 10:32:32;;;;;;;57.28;36.10;;;;;;;;;;6278701;28;20045;-77
2023/01/01 10:35:36;;;;;;;60.03;37.38;;;;;;;;;;6277273;28;20390;-74
2023/01/01 10:38:39;;;;;;;56.50;37.15;;;;;;;;;;6277826;28;20324;-74
2023/01/01 10:41:42;;;;;;;56.03;36.35;;;;;;;;;;6279009;28;20053;-77
2023/01/01 10:44:44;;;;;;;58.20;37.72;;;;;;;;;;6276972;28;20061;-77
2023/01/01 10:48:11;;;;;;;56.60;36.97;;;;;;;;;;6276494;28;20044;-72
2023/01/01 10:51:15;;;;;;;57.95;36.92;;;;;;;;;;6276230;28;20064;-76
2023/01/01 10:54:33;;;;;;;58.47;37.97;;;;;;;;;;6275888;28;20057;-77
2023/01/01 10:57:39;;;;;;;57.97;37.35;;;;;;;;;;6275928;28;20059;-74
2023/01/01 11:00:40;;;;;;;57.45;37.22;;;;;;;;;;6278242;28;20055;-76
2023/01/01 11:03:57;;;;;;;60.10;38.90;;;;;;;;;;6277242;28;20057;-74
2023/01/01 11:06:59;;;;;;;60.05;38.58;;;;;;;;;;6276478;28;20052;-77
2023/01/01 11:10:03;;;;;;;56.92;37.03;;;;;;;;;;6275021;28;20053;-75
2023/01/01 11:13:12;;;;;;;;;;;;;;;;;;6278288;28;20053;-77
2023/01/01 11:16:13;;;;;;;63.17;37.67;;;;;;;;;;6276628;28;19916;-76
2023/01/01 11:19:21;;;;;;;62.03;37.42;;;;;;;;;;6276447;28;20067;-77
2023/01/01 11:22:38;;;;;;;61.45;35.78;;;;;;;;;;6277542;28;20098;-71
2023/01/01 11:25:40;;;;;;;69.95;39.83;;;;;;;;;;6252120;28;20048;-77
2023/01/01 11:28:59;;;;;;;68.40;40.53;;;;;;;;;;6252231;28;20053;-72
2023/01/01 11:32:00;;;;;;;67.65;38.30;;;;;;;;;;6250678;28;20306;-76
2023/01/01 11:35:06;;;;;;;66.57;39.42;;;;;;;;;;6272686;28;20048;-77
2023/01/01 11:38:18;;;;;;;68.65;39.08;;;;;;;;;;6277091;28;20108;-77
2023/01/01 11:41:19;;;;;;;70.80;39.88;;;;;;;;;;6276614;28;20049;-77
2023/01/01 11:44:36;;;;;;;71.70;41.58;;;;;;;;;;6276576;28;20287;-76
2023/01/01 11:47:39;;;;;;;64.82;39.28;;;;;;;;;;6275559;28;20897;-75
2023/01/01 11:50:42;;;;;;;66.70;40.58;;;;;;;;;;6274459;28;20248;-73
2023/01/01 11:53:43;;;;;;;69.75;40.50;;;;;;;;;;6277419;28;20040;-77
2023/01/01 11:56:45;;;;;;;68.20;41.47;;;;;;;;;;6273952;28;20049;-76
2023/01/01 11:59:53;;;;;;;67.03;38.97;;;;;;;;;;6275967;28;20056;-77
2023/01/01 12:02:59;;;;;;;61.05;37.25;;;;;;;;;;6276211;28;20061;-77
2023/01/01 12:06:05;;;;;;;61.10;37.40;;;;;;;;;;6275847;28;20044;-76
2023/01/01 12:09:13;;;;;;;64.22;38.25;;;;;;;;;;6276435;28;20063;-77
2023/01/01 12:12:20;;;;;;;61.63;37.53;;;;;;;;;;6275260;28;20053;-77
2023/01/01 12:15:27;;;;;;;65.00;37.88;;;;;;;;;;6277048;28;20045;-77
2023/01/01 12:18:35;;;;;;;64.60;37.60;;;;;;;;;;6276111;28;20045;-75
2023/01/01 12:21:39;;;;;;;55.70;34.40;;;;;;;;;;6273113;28;20221;-77
2023/01/01 12:24:41;;;;;;;62.42;35.50;;;;;;;;;;6273633;28;20049;-77
2023/01/01 12:27:57;;;;;;;63.65;35.50;;;;;;;;;;6275794;28;20052;-77
2023/01/01 12:31:03;;;;;;;62.80;34.38;;;;;;;;;;6274496;28;20053;-74
2023/01/01 12:34:10;;;;;;;57.33;33.13;;;;;;;;;;6278679;28;20045;-77
2023/01/01 12:37:20;;;;;;;60.17;34.28;;;;;;;;;;6277108;28;20041;-77
2023/01/01 12:40:34;;;;;;;58.25;34.08;;;;;;;;;;6278430;28;20059;-76
2023/01/01 12:43:36;;;;;;;;;;;;;;;;;;6277526;28;20045;-77
2023/01/01 12:46:48;;;;;;;54.28;29.80;;;;;;;;;;6276626;28;19931;-77
2023/01/01 12:50:00;;;;;;;51.90;31.13;;;;;;;;;;6281255;28;20067;-76
2023/01/01 12:53:13;;;;;;;55.33;30.77;;;;;;;;;;6281845;28;20456;-77
2023/01/01 12:56:20;;;;;;;57.70;33.28;;;;;;;;;;6281827;28;20120;-77
2023/01/01 12:59:26;;;;;;;62.67;34.45;;;;;;;;;;6279577;28;20257;-77
2023/01/01 13:02:32;;;;;;;65.68;35.20;;;;;;;;;;6278150;28;20052;-77
2023/01/01 13:05:37;;;;;;;64.82;35.20;;;;;;;;;;6280004;28;20158;-76
2023/01/01 13:08:38;;;;;;;;;;;;;;;;;;6279159;28;20059;-77
2023/01/01 13:11:40;;;;;;;65.38;34.60;;;;;;;;;;6278605;28;20112;-76
2023/01/01 13:14:43;;;;;;;64.97;34.75;;;;;;;;;;6281415;28;20053;-76
2023/01/01 13:17:52;;;;;;;70.60;35.00;;;;;;;;;;6279226;28;20049;-77
2023/01/01 13:21:01;;;;;;;65.63;35.88;;;;;;;;;;6279951;28;20060;-77
2023/01/01 13:24:19;;;;;;;65.05;35.20;;;;;;;;;;6279700;28;20045;-72
2023/01/01 13:28:02;;;;;;;71.18;37.83;;;;;;;;;;6279811;28;20041;-76
2023/01/01 13:31:04;;;;;;;67.85;35.22;;;;;;;;;;6278521;28;20112;-76
2023/01/01 13:34:36;;;;;;;64.40;36.65;;;;;;;;;;6282558;28;20052;-77
2023/01/01 13:37:43;;;;;;;59.80;33.78;;;;;;;;;;6255477;28;20049;-77
2023/01/01 13:40:50;;;;;;;65.00;35.53;;;;;;;;;;6254708;28;20053;-77
2023/01/01 13:43:52;;;;;;;62.08;34.28;;;;;;;;;;6255931;28;20245;-77
2023/01/01 13:47:14;;;;;;;62.80;34.92;;;;;;;;;;6257200;28;20222;-77
2023/01/01 13:50:20;;;;;;;61.50;33.58;;;;;;;;;;6267024;28;20464;-77
2023/01/01 13:53:40;;;;;;;60.03;33.85;;;;;;;;;;6279449;28;20091;-77
2023/01/01 13:56:47;;;;;;;59.70;33.83;;;;;;;;;;6278709;28;20099;-77
2023/01/01 13:59:57;;;;;;;58.00;33.60;;;;;;;;;;6277362;28;20049;-77
2023/01/01 14:03:01;;;;;;;50.90;30.90;;;;;;;;;;6277352;28;20256;-77
2023/01/01 14:06:11;;;;;;;49.28;30.35;;;;;;;;;;6278726;28;20300;-76
2023/01/01 14:09:14;;;;;;;48.00;28.60;;;;;;;;;;6277857;28;20053;-76
2023/01/01 14:12:17;;;;;;;47.03;28.80;;;;;;;;;;6278451;28;20048;-76
2023/01/01 14:15:25;;;;;;;45.75;27.65;;;;;;;;;;6276967;28;20087;-76
2023/01/01 14:18:32;;;;;;;45.45;27.25;;;;;;;;;;6277973;28;20055;-76
2023/01/01 14:21:35;;;;;;;43.72;26.58;;;;;;;;;;6277321;28;20044;-76
2023/01/01 14:24:41;;;;;;;40.90;26.92;;;;;;;;;;6278330;28;20239;-73
2023/01/01 14:27:43;;;;;;;39.72;25.92;;;;;;;;;;6278590;28;20048;-76
2023/01/01 14:30:46;;;;;;;39.75;25.05;;;;;;;;;;6278951;28;20059;-74
2023/01/01 14:33:47;;;;;;;35.75;23.80;;;;;;;;;;6278108;28;20045;-76
2023/01/01 14:36:51;;;;;;;39.42;25.67;;;;;;;;;;6278782;28;20049;-76
2023/01/01 14:40:15;;;;;;;36.65;23.00;;;;;;;;;;6277445;28;20103;-76
2023/01/01 14:43:17;;;;;;;37.22;24.00;;;;;;;;;;6276695;28;20352;-76
2023/01/01 14:46:21;;;;;;;36.40;24.23;;;;;;;;;;6278444;28;20055;-76
2023/01/01 14:49:25;;;;;;;37.03;23.38;;;;;;;;;;6277471;28;20269;-77
2023/01/01 14:52:30;;;;;;;34.15;22.73;;;;;;;;;;6277738;28;20084;-71
2023/01/01 14:55:35;;;;;;;34.22;23.25;;;;;;;;;;6276707;28;20105;-76
2023/01/01 14:58:40;;;;;;;29.73;20.75;;;;;;;;;;6277751;28;20260;-72
2023/01/01 15:01:41;;;;;;;31.15;21.23;;;;;;;;;;6278811;28;20155;-70
2023/01/01 15:04:44;;;;;;;30.75;20.90;;;;;;;;;;6277535;28;20094;-76
2023/01/01 15:07:56;;;;;;;31.05;20.73;;;;;;;;;;6276465;28;20056;-74
2023/01/01 15:10:58;;;;;;;32.38;20.52;;;;;;;;;;6276892;28;20108;-76
2023/01/01 15:14:01;;;;;;;32.42;20.83;;;;;;;;;;6277590;28;20044;-75
2023/01/01 15:17:04;;;;;;;29.23;19.30;;;;;;;;;;6276416;28;20052;-76
2023/01/01 15:20:15;;;;;;;29.98;20.50;;;;;;;;;;6275801;28;20045;-77
2023/01/01 15:23:19;;;;;;;27.58;19.52;;;;;;;;;;6274721;28;20325;-77
2023/01/01 15:26:29;;;;;;;28.52;19.08;;;;;;;;;;6276173;28;20053;-74
2023/01/01 15:29:33;;;;;;;29.27;19.75;;;;;;;;;;6276721;28;20044;-73
2023/01/01 15:32:36;;;;;;;29.95;20.00;;;;;;;;;;6276533;28;20045;-75
2023/01/01 15:35:38;;;;;;;31.60;20.30;;;;;;;;;;6276188;28;20036;-75
2023/01/01 15:38:45;;;;;;;28.10;19.27;;;;;;;;;;6278503;28;20053;-76
2023/01/01 15:41:48;;;;;;;30.83;21.35;;;;;;;;;;6278156;28;20052;-76
2023/01/01 15:44:50;;;;;;;32.47;20.33;;;;;;;;;;6278229;28;20053;-76
2023/01/01 15:47:53;;;;;;;29.98;20.23;;;;;;;;;;6277256;28;20045;-76
2023/01/01 15:51:12;;;;;;;29.88;20.60;;;;;;;;;;6274462;28;20064;-76
2023/01/01 15:54:17;;;;;;;31.67;21.30;;;;;;;;;;6276375;28;20260;-76
2023/01/01 15:57:20;;;;;;;30.02;20.55;;;;;;;;;;6275157;28;20087;-72
2023/01/01 16:00:24;;;;;;;28.53;18.63;;;;;;;;;;6275544;28;20049;-76
2023/01/01 16:03:27;;;;;;;28.77;18.95;;;;;;;;;;6275015;28;20468;-76
2023/01/01 16:06:29;;;;;;;26.17;18.33;;;;;;;;;;6276295;28;20045;-73
2023/01/01 16:09:34;;;;;;;28.77;19.08;;;;;;;;;;6277629;28;20260;-74
2023/01/01 16:12:36;;;;;;;27.85;18.50;;;;;;;;;;6274834;28;20067;-76
2023/01/01 16:15:38;;;;;;;25.92;18.00;;;;;;;;;;6274997;28;20040;-75
2023/01/01 16:18:39;;;;;;;29.00;19.17;;;;;;;;;;6273027;28;20091;-74
2023/01/01 16:21:41;;;;;;;30.13;19.58;;;;;;;;;;6278749;28;20052;-75
2023/01/01 16:24:45;;;;;;;34.45;22.33;;;;;;;;;;6280343;28;20112;-76
2023/01/01 16:27:47;;;;;;;30.63;19.23;;;;;;;;;;6279127;28;20260;-73
2023/01/01 16:30:48;;;;;;;30.42;18.60;;;;;;;;;;6279623;28;20090;-76
2023/01/01 16:33:54;;;;;;;27.70;18.65;;;;;;;;;;6281165;28;20044;-76
2023/01/01 16:36:55;;;;;;;28.95;18.90;;;;;;;;;;6282444;28;20056;-74
2023/01/01 16:39:58;;;;;;;29.77;19.90;;;;;;;;;;6280528;28;20206;-76
2023/01/01 16:43:00;;;;;;;27.92;18.92;;;;;;;;;;6283028;28;20057;-76
2023/01/01 16:46:02;;;;;;;28.30;18.52;;;;;;;;;;6281429;28;20336;-76
2023/01/01 16:49:03;;;;;;;30.05;19.25;;;;;;;;;;6281984;28;20397;-76
2023/01/01 16:52:05;;;;;;;27.88;17.95;;;;;;;;;;6279974;28;20233;-76
2023/01/01 16:55:08;;;;;;;30.67;17.95;;;;;;;;;;6277700;28;20296;-76
2023/01/01 16:58:10;;;;;;;28.63;18.13;;;;;;;;;;6278427;28;20355;-76
2023/01/01 17:01:12;;;;;;;29.20;18.70;;;;;;;;;;6279432;28;20866;-76
2023/01/01 17:04:13;;;;;;;27.77;18.83;;;;;;;;;;6280522;28;20091;-76
2023/01/01 17:07:15;;;;;;;30.25;19.65;;;;;;;;;;6277873;28;20044;-76
2023/01/01 17:10:18;;;;;;;32.42;20.27;;;;;;;;;;6279858;28;20057;-76
2023/01/01 17:13:20;;;;;;;27.98;18.42;;;;;;;;;;6279669;28;20206;-76
2023/01/01 17:16:21;;;;;;;27.10;17.65;;;;;;;;;;6278062;28;20056;-76
2023/01/01 17:19:23;;;;;;;27.20;17.13;;;;;;;;;;6279880;28;20052;-75
2023/01/01 17:22:25;;;;;;;27.35;17.98;;;;;;;;;;6278609;28;20053;-76
2023/01/01 17:25:28;;;;;;;25.35;17.65;;;;;;;;;;6280030;28;20045;-73
2023/01/01 17:28:30;;;;;;;28.20;18.50;;;;;;;;;;6278905;28;20438;-73
2023/01/01 17:31:31;;;;;;;25.02;15.75;;;;;;;;;;6277415;28;20193;-74
2023/01/01 17:34:33;;;;;;;23.75;16.25;;;;;;;;;;6280347;28;20056;-76
2023/01/01 17:37:35;;;;;;;24.08;16.23;;;;;;;;;;6280418;28;20059;-76
2023/01/01 17:40:38;;;;;;;25.17;17.33;;;;;;;;;;6279310;28;20107;-76
2023/01/01 17:43:41;;;;;;;22.20;15.82;;;;;;;;;;6279035;28;20045;-76
2023/01/01 17:46:43;;;;;;;25.30;17.20;;;;;;;;;;6280027;28;20055;-76
2023/01/01 17:49:44;;;;;;;25.08;17.00;;;;;;;;;;6280407;28;20045;-76
2023/01/01 17:52:46;;;;;;;25.70;17.50;;;;;;;;;;6278978;28;20053;-75
2023/01/01 17:55:49;;;;;;;23.98;16.73;;;;;;;;;;6279394;28;20044;-76
2023/01/01 17:58:52;;;;;;;28.95;18.83;;;;;;;;;;6278736;28;20057;-75
2023/01/01 18:01:54;;;;;;;29.15;19.05;;;;;;;;;;6279839;28;20048;-78